Terminal Aerodrome Forecast
Issued by NWS

Home | Current Version | Previous Version | Text Only | Print | Product List | Glossary On
Versions: 1 2 3 4 5 6 7 8 9 10 11 12 13 14 15 16 17 18 19 20 21 22 23 24 25 26 27
000
FTUS41 KBUF 301100
TAFJHW
TAF
KJHW 301134Z 3012/3112 31005KT P6SM VCSH OVC035
     FM301400 30007KT P6SM BKN035
     FM302000 29008KT P6SM BKN025
     FM310400 23004KT P6SM BKN020
     FM310900 18004KT P6SM OVC020
     FM311100 19005KT P6SM VCSH OVC025
      AMD LTD TO CLD VIS AND WIND=

USA.gov is the U.S. government's official web portal to all federal, state and local government web resources and services.